sensor_id;sensor_type;location;lat;lon;timestamp;temperature;humidity
29687;DHT22;16599;47.078;15.536;2023-03-14T00:00:17;5.00;99.90
29687;DHT22;16599;47.078;15.536;2023-03-14T00:02:44;5.00;99.90
29687;DHT22;16599;47.078;15.536;2023-03-14T00:05:10;5.70;99.90
29687;DHT22;16599;47.078;15.536;2023-03-14T00:07:37;5.50;99.90
29687;DHT22;16599;47.078;15.536;2023-03-14T00:10:05;5.20;99.90
29687;DHT22;16599;47.078;15.536;2023-03-14T00:12:32;5.40;99.90
29687;DHT22;16599;47.078;15.536;2023-03-14T00:14:59;5.50;99.90
29687;DHT22;16599;47.078;15.536;2023-03-14T00:17:31;5.10;99.90
29687;DHT22;16599;47.078;15.536;2023-03-14T00:19:57;4.90;99.90
29687;DHT22;16599;47.078;15.536;2023-03-14T00:22:31;4.90;99.90
29687;DHT22;16599;47.078;15.536;2023-03-14T00:24:58;5.30;99.90
29687;DHT22;16599;47.078;15.536;2023-03-14T00:27:24;5.20;99.90
29687;DHT22;16599;47.078;15.536;2023-03-14T00:29:51;5.00;99.90
29687;DHT22;16599;47.078;15.536;2023-03-14T00:32:18;5.00;99.90
29687;DHT22;16599;47.078;15.536;2023-03-14T00:34:44;5.10;99.90
29687;DHT22;16599;47.078;15.536;2023-03-14T00:37:11;4.90;99.90
29687;DHT22;16599;47.078;15.536;2023-03-14T00:39:38;4.80;99.90
29687;DHT22;16599;47.078;15.536;2023-03-14T00:42:04;4.60;99.90
29687;DHT22;16599;47.078;15.536;2023-03-14T00:44:31;4.50;99.90
29687;DHT22;16599;47.078;15.536;2023-03-14T00:46:58;4.40;99.90
29687;DHT22;16599;47.078;15.536;2023-03-14T00:49:25;5.00;99.90
29687;DHT22;16599;47.078;15.536;2023-03-14T00:51:51;4.50;99.90
29687;DHT22;16599;47.078;15.536;2023-03-14T00:54:19;4.40;99.90
29687;DHT22;16599;47.078;15.536;2023-03-14T00:56:46;4.40;99.90
29687;DHT22;16599;47.078;15.536;2023-03-14T00:59:13;4.40;99.90
29687;DHT22;16599;47.078;15.536;2023-03-14T01:01:39;4.40;99.90
29687;DHT22;16599;47.078;15.536;2023-03-14T01:04:06;4.50;99.90
29687;DHT22;16599;47.078;15.536;2023-03-14T01:06:33;4.80;99.90
29687;DHT22;16599;47.078;15.536;2023-03-14T01:08:59;4.80;99.90
29687;DHT22;16599;47.078;15.536;2023-03-14T01:11:27;4.50;99.90
29687;DHT22;16599;47.078;15.536;2023-03-14T01:13:55;4.50;99.90
29687;DHT22;16599;47.078;15.536;2023-03-14T01:16:23;4.40;99.90
29687;DHT22;16599;47.078;15.536;2023-03-14T01:18:50;4.40;99.90
29687;DHT22;16599;47.078;15.536;2023-03-14T01:21:18;4.50;99.90
29687;DHT22;16599;47.078;15.536;2023-03-14T01:23:46;4.80;99.90
29687;DHT22;16599;47.078;15.536;2023-03-14T01:26:14;5.10;99.90
29687;DHT22;16599;47.078;15.536;2023-03-14T01:28:41;5.00;99.90
29687;DHT22;16599;47.078;15.536;2023-03-14T01:31:09;5.30;99.90
29687;DHT22;16599;47.078;15.536;2023-03-14T01:33:36;6.20;99.90
29687;DHT22;16599;47.078;15.536;2023-03-14T01:36:03;6.10;99.90
29687;DHT22;16599;47.078;15.536;2023-03-14T01:38:30;5.60;99.90
29687;DHT22;16599;47.078;15.536;2023-03-14T01:40:57;5.20;99.90
29687;DHT22;16599;47.078;15.536;2023-03-14T01:43:24;5.00;99.90
29687;DHT22;16599;47.078;15.536;2023-03-14T01:51:58;6.10;99.60
29687;DHT22;16599;47.078;15.536;2023-03-14T01:56:57;5.40;99.90
29687;DHT22;16599;47.078;15.536;2023-03-14T01:59:24;5.50;99.90
29687;DHT22;16599;47.078;15.536;2023-03-14T02:01:51;5.00;99.90
29687;DHT22;16599;47.078;15.536;2023-03-14T02:04:18;5.20;99.90
29687;DHT22;16599;47.078;15.536;2023-03-14T02:07:33;4.90;99.90
29687;DHT22;16599;47.078;15.536;2023-03-14T02:09:32;5.10;99.90
29687;DHT22;16599;47.078;15.536;2023-03-14T02:11:59;6.20;99.90
29687;DHT22;16599;47.078;15.536;2023-03-14T02:14:33;5.50;99.90
29687;DHT22;16599;47.078;15.536;2023-03-14T02:17:00;5.00;99.90
29687;DHT22;16599;47.078;15.536;2023-03-14T02:22:10;5.80;99.90
29687;DHT22;16599;47.078;15.536;2023-03-14T02:24:50;5.30;99.90
29687;DHT22;16599;47.078;15.536;2023-03-14T02:27:20;5.70;99.90
29687;DHT22;16599;47.078;15.536;2023-03-14T02:29:51;5.20;99.90
29687;DHT22;16599;47.078;15.536;2023-03-14T02:32:19;5.30;99.90
29687;DHT22;16599;47.078;15.536;2023-03-14T02:34:47;4.80;99.90
29687;DHT22;16599;47.078;15.536;2023-03-14T02:37:14;4.60;99.90
29687;DHT22;16599;47.078;15.536;2023-03-14T02:39:43;4.50;99.90
29687;DHT22;16599;47.078;15.536;2023-03-14T02:42:12;4.80;99.90
29687;DHT22;16599;47.078;15.536;2023-03-14T02:47:32;4.70;99.90
29687;DHT22;16599;47.078;15.536;2023-03-14T02:50:02;5.80;99.90
29687;DHT22;16599;47.078;15.536;2023-03-14T02:52:30;5.00;99.90
29687;DHT22;16599;47.078;15.536;2023-03-14T02:54:56;4.90;99.90
29687;DHT22;16599;47.078;15.536;2023-03-14T02:57:23;5.00;99.90
29687;DHT22;16599;47.078;15.536;2023-03-14T02:59:50;4.80;99.90
29687;DHT22;16599;47.078;15.536;2023-03-14T03:02:17;4.80;99.90
29687;DHT22;16599;47.078;15.536;2023-03-14T03:04:44;5.10;99.90
29687;DHT22;16599;47.078;15.536;2023-03-14T03:07:10;5.10;99.90
29687;DHT22;16599;47.078;15.536;2023-03-14T03:09:37;5.00;99.90
29687;DHT22;16599;47.078;15.536;2023-03-14T03:12:04;4.90;99.90
29687;DHT22;16599;47.078;15.536;2023-03-14T03:14:30;4.90;99.90
29687;DHT22;16599;47.078;15.536;2023-03-14T03:16:57;5.30;99.90
29687;DHT22;16599;47.078;15.536;2023-03-14T03:19:24;5.20;99.90
29687;DHT22;16599;47.078;15.536;2023-03-14T03:21:50;5.20;99.90
29687;DHT22;16599;47.078;15.536;2023-03-14T03:24:17;4.80;99.90
29687;DHT22;16599;47.078;15.536;2023-03-14T03:26:44;4.60;99.90
29687;DHT22;16599;47.078;15.536;2023-03-14T03:29:10;5.10;99.90
29687;DHT22;16599;47.078;15.536;2023-03-14T03:31:37;4.90;99.90
29687;DHT22;16599;47.078;15.536;2023-03-14T03:34:04;5.30;99.90
29687;DHT22;16599;47.078;15.536;2023-03-14T03:36:31;5.20;99.90
29687;DHT22;16599;47.078;15.536;2023-03-14T03:38:58;5.00;99.90
29687;DHT22;16599;47.078;15.536;2023-03-14T03:41:24;5.40;99.90
29687;DHT22;16599;47.078;15.536;2023-03-14T03:43:51;5.40;99.90
29687;DHT22;16599;47.078;15.536;2023-03-14T03:46:18;5.30;99.90
29687;DHT22;16599;47.078;15.536;2023-03-14T03:48:45;5.70;99.90
29687;DHT22;16599;47.078;15.536;2023-03-14T03:51:12;5.90;99.90
29687;DHT22;16599;47.078;15.536;2023-03-14T03:53:39;5.70;99.90
29687;DHT22;16599;47.078;15.536;2023-03-14T03:56:06;5.50;99.90
29687;DHT22;16599;47.078;15.536;2023-03-14T03:58:33;5.40;99.90
29687;DHT22;16599;47.078;15.536;2023-03-14T04:00:59;4.80;99.90
29687;DHT22;16599;47.078;15.536;2023-03-14T04:03:26;5.20;99.90
29687;DHT22;16599;47.078;15.536;2023-03-14T04:06:00;6.40;99.90
29687;DHT22;16599;47.078;15.536;2023-03-14T04:08:27;6.60;99.90
29687;DHT22;16599;47.078;15.536;2023-03-14T04:10:57;5.70;99.90
29687;DHT22;16599;47.078;15.536;2023-03-14T04:13:25;5.30;99.90
29687;DHT22;16599;47.078;15.536;2023-03-14T04:15:52;5.80;99.90
29687;DHT22;16599;47.078;15.536;2023-03-14T04:18:19;6.10;99.90
29687;DHT22;16599;47.078;15.536;2023-03-14T04:20:50;5.60;99.90
29687;DHT22;16599;47.078;15.536;2023-03-14T04:23:16;5.40;99.90
29687;DHT22;16599;47.078;15.536;2023-03-14T04:25:43;6.20;99.90
29687;DHT22;16599;47.078;15.536;2023-03-14T04:28:10;5.80;99.90
29687;DHT22;16599;47.078;15.536;2023-03-14T04:30:36;5.70;99.90
29687;DHT22;16599;47.078;15.536;2023-03-14T04:33:03;5.40;99.90
29687;DHT22;16599;47.078;15.536;2023-03-14T04:35:30;5.30;99.90
29687;DHT22;16599;47.078;15.536;2023-03-14T04:37:57;5.40;99.90
29687;DHT22;16599;47.078;15.536;2023-03-14T04:40:24;5.20;99.90
29687;DHT22;16599;47.078;15.536;2023-03-14T04:42:53;5.20;99.90
29687;DHT22;16599;47.078;15.536;2023-03-14T04:45:19;5.10;99.90
29687;DHT22;16599;47.078;15.536;2023-03-14T04:47:46;5.20;99.90
29687;DHT22;16599;47.078;15.536;2023-03-14T04:50:13;5.00;99.90
29687;DHT22;16599;47.078;15.536;2023-03-14T04:52:40;4.80;99.90
29687;DHT22;16599;47.078;15.536;2023-03-14T04:55:06;4.80;99.90
29687;DHT22;16599;47.078;15.536;2023-03-14T04:57:33;4.90;99.90
29687;DHT22;16599;47.078;15.536;2023-03-14T05:00:00;5.10;99.90
29687;DHT22;16599;47.078;15.536;2023-03-14T05:02:26;5.20;99.90
29687;DHT22;16599;47.078;15.536;2023-03-14T05:04:53;5.50;99.90
29687;DHT22;16599;47.078;15.536;2023-03-14T05:07:20;5.30;99.90
29687;DHT22;16599;47.078;15.536;2023-03-14T05:09:46;5.10;99.90
29687;DHT22;16599;47.078;15.536;2023-03-14T05:12:13;5.20;99.90
29687;DHT22;16599;47.078;15.536;2023-03-14T05:14:40;5.10;99.90
29687;DHT22;16599;47.078;15.536;2023-03-14T05:17:06;5.40;99.90
29687;DHT22;16599;47.078;15.536;2023-03-14T05:19:33;5.60;99.90
29687;DHT22;16599;47.078;15.536;2023-03-14T05:22:01;5.50;99.90
29687;DHT22;16599;47.078;15.536;2023-03-14T05:24:28;5.60;99.90
29687;DHT22;16599;47.078;15.536;2023-03-14T05:26:55;5.60;99.90
29687;DHT22;16599;47.078;15.536;2023-03-14T05:29:21;5.50;99.90
29687;DHT22;16599;47.078;15.536;2023-03-14T05:31:48;5.60;99.90
29687;DHT22;16599;47.078;15.536;2023-03-14T05:34:15;5.80;99.90
29687;DHT22;16599;47.078;15.536;2023-03-14T05:36:42;5.90;99.90
29687;DHT22;16599;47.078;15.536;2023-03-14T05:39:08;5.90;99.90
29687;DHT22;16599;47.078;15.536;2023-03-14T05:41:35;6.00;99.90
29687;DHT22;16599;47.078;15.536;2023-03-14T05:44:02;6.10;99.90
29687;DHT22;16599;47.078;15.536;2023-03-14T05:46:29;6.20;99.90
29687;DHT22;16599;47.078;15.536;2023-03-14T05:48:57;6.20;99.90
29687;DHT22;16599;47.078;15.536;2023-03-14T05:51:24;6.30;99.90
29687;DHT22;16599;47.078;15.536;2023-03-14T05:53:51;6.50;99.90
29687;DHT22;16599;47.078;15.536;2023-03-14T05:56:18;6.90;99.90
29687;DHT22;16599;47.078;15.536;2023-03-14T05:58:45;7.10;99.90
29687;DHT22;16599;47.078;15.536;2023-03-14T06:01:11;7.40;99.90
29687;DHT22;16599;47.078;15.536;2023-03-14T06:03:38;7.60;99.90
29687;DHT22;16599;47.078;15.536;2023-03-14T06:06:05;7.40;99.90
29687;DHT22;16599;47.078;15.536;2023-03-14T06:08:32;7.90;99.90
29687;DHT22;16599;47.078;15.536;2023-03-14T06:10:58;8.20;99.90
29687;DHT22;16599;47.078;15.536;2023-03-14T06:13:25;8.30;99.90
29687;DHT22;16599;47.078;15.536;2023-03-14T06:15:52;8.00;99.90
29687;DHT22;16599;47.078;15.536;2023-03-14T06:18:19;7.90;99.90
29687;DHT22;16599;47.078;15.536;2023-03-14T06:20:45;7.90;99.90
29687;DHT22;16599;47.078;15.536;2023-03-14T06:23:12;7.90;99.90
29687;DHT22;16599;47.078;15.536;2023-03-14T06:25:39;8.20;99.90
29687;DHT22;16599;47.078;15.536;2023-03-14T06:28:05;8.20;99.90
29687;DHT22;16599;47.078;15.536;2023-03-14T06:30:32;8.10;99.90
29687;DHT22;16599;47.078;15.536;2023-03-14T06:32:59;8.40;99.90
29687;DHT22;16599;47.078;15.536;2023-03-14T06:35:26;8.80;99.90
29687;DHT22;16599;47.078;15.536;2023-03-14T06:37:52;9.30;99.90
29687;DHT22;16599;47.078;15.536;2023-03-14T06:40:19;9.10;99.90
29687;DHT22;16599;47.078;15.536;2023-03-14T06:42:46;8.80;99.90
29687;DHT22;16599;47.078;15.536;2023-03-14T06:45:13;9.10;99.90
29687;DHT22;16599;47.078;15.536;2023-03-14T06:47:40;9.50;99.90
29687;DHT22;16599;47.078;15.536;2023-03-14T06:50:07;9.40;99.90
29687;DHT22;16599;47.078;15.536;2023-03-14T06:52:33;9.70;99.90
29687;DHT22;16599;47.078;15.536;2023-03-14T06:55:00;9.70;99.90
29687;DHT22;16599;47.078;15.536;2023-03-14T06:57:27;9.80;99.90
29687;DHT22;16599;47.078;15.536;2023-03-14T06:59:54;10.20;99.90
29687;DHT22;16599;47.078;15.536;2023-03-14T07:02:20;10.50;99.90
29687;DHT22;16599;47.078;15.536;2023-03-14T07:05:05;10.40;99.90
29687;DHT22;16599;47.078;15.536;2023-03-14T07:07:32;9.90;99.90
29687;DHT22;16599;47.078;15.536;2023-03-14T07:09:59;9.90;99.90
29687;DHT22;16599;47.078;15.536;2023-03-14T07:12:25;10.10;99.90
29687;DHT22;16599;47.078;15.536;2023-03-14T07:14:52;10.40;99.90
29687;DHT22;16599;47.078;15.536;2023-03-14T07:17:19;10.60;99.90
29687;DHT22;16599;47.078;15.536;2023-03-14T07:19:45;10.70;99.90
29687;DHT22;16599;47.078;15.536;2023-03-14T07:22:13;10.70;99.90
29687;DHT22;16599;47.078;15.536;2023-03-14T07:24:39;10.80;99.90
29687;DHT22;16599;47.078;15.536;2023-03-14T07:27:06;11.00;99.90
29687;DHT22;16599;47.078;15.536;2023-03-14T07:29:36;10.90;99.90
29687;DHT22;16599;47.078;15.536;2023-03-14T07:32:03;10.60;99.90
29687;DHT22;16599;47.078;15.536;2023-03-14T07:34:29;10.70;99.90
29687;DHT22;16599;47.078;15.536;2023-03-14T07:36:56;10.70;99.90
29687;DHT22;16599;47.078;15.536;2023-03-14T07:39:23;10.60;99.90
29687;DHT22;16599;47.078;15.536;2023-03-14T07:41:50;10.70;99.90
29687;DHT22;16599;47.078;15.536;2023-03-14T07:44:16;10.80;99.90
29687;DHT22;16599;47.078;15.536;2023-03-14T07:46:43;11.00;99.90
29687;DHT22;16599;47.078;15.536;2023-03-14T07:49:10;11.20;99.90
29687;DHT22;16599;47.078;15.536;2023-03-14T07:51:36;11.30;99.90
29687;DHT22;16599;47.078;15.536;2023-03-14T07:54:03;11.40;99.90
29687;DHT22;16599;47.078;15.536;2023-03-14T07:56:30;11.50;99.90
29687;DHT22;16599;47.078;15.536;2023-03-14T07:58:59;11.50;99.90
29687;DHT22;16599;47.078;15.536;2023-03-14T08:01:29;11.60;99.90
29687;DHT22;16599;47.078;15.536;2023-03-14T08:03:57;11.70;99.90
29687;DHT22;16599;47.078;15.536;2023-03-14T08:06:23;11.90;99.90
29687;DHT22;16599;47.078;15.536;2023-03-14T08:08:50;12.00;99.60
29687;DHT22;16599;47.078;15.536;2023-03-14T08:11:17;12.10;99.30
29687;DHT22;16599;47.078;15.536;2023-03-14T08:13:44;12.10;98.80
29687;DHT22;16599;47.078;15.536;2023-03-14T08:16:19;12.30;98.70
29687;DHT22;16599;47.078;15.536;2023-03-14T08:18:46;12.20;98.30
29687;DHT22;16599;47.078;15.536;2023-03-14T08:21:12;12.30;98.60
29687;DHT22;16599;47.078;15.536;2023-03-14T08:23:39;12.30;99.10
29687;DHT22;16599;47.078;15.536;2023-03-14T08:26:06;12.30;98.70
29687;DHT22;16599;47.078;15.536;2023-03-14T08:28:32;12.40;98.70
29687;DHT22;16599;47.078;15.536;2023-03-14T08:30:59;12.40;98.60
29687;DHT22;16599;47.078;15.536;2023-03-14T08:33:27;12.50;98.30
29687;DHT22;16599;47.078;15.536;2023-03-14T08:35:55;12.70;97.60
29687;DHT22;16599;47.078;15.536;2023-03-14T08:38:21;12.70;97.50
29687;DHT22;16599;47.078;15.536;2023-03-14T08:40:48;12.90;97.10
29687;DHT22;16599;47.078;15.536;2023-03-14T08:43:16;12.90;97.00
29687;DHT22;16599;47.078;15.536;2023-03-14T08:45:43;12.90;96.60
29687;DHT22;16599;47.078;15.536;2023-03-14T08:48:10;12.90;96.50
29687;DHT22;16599;47.078;15.536;2023-03-14T08:50:36;13.10;96.80
29687;DHT22;16599;47.078;15.536;2023-03-14T08:53:03;13.10;95.60
29687;DHT22;16599;47.078;15.536;2023-03-14T08:55:30;13.30;95.20
29687;DHT22;16599;47.078;15.536;2023-03-14T08:58:02;13.30;95.30
29687;DHT22;16599;47.078;15.536;2023-03-14T09:00:32;13.40;94.70
29687;DHT22;16599;47.078;15.536;2023-03-14T09:03:01;13.50;94.40
29687;DHT22;16599;47.078;15.536;2023-03-14T09:05:34;13.50;93.40
29687;DHT22;16599;47.078;15.536;2023-03-14T09:08:21;13.40;93.00
29687;DHT22;16599;47.078;15.536;2023-03-14T09:10:47;13.50;92.50
29687;DHT22;16599;47.078;15.536;2023-03-14T09:13:14;13.50;92.70
29687;DHT22;16599;47.078;15.536;2023-03-14T09:15:41;13.70;92.50
29687;DHT22;16599;47.078;15.536;2023-03-14T09:18:08;14.00;92.80
29687;DHT22;16599;47.078;15.536;2023-03-14T09:20:35;14.20;91.70
29687;DHT22;16599;47.078;15.536;2023-03-14T09:23:02;14.10;91.50
29687;DHT22;16599;47.078;15.536;2023-03-14T09:25:29;14.20;91.30
29687;DHT22;16599;47.078;15.536;2023-03-14T09:27:55;14.20;91.40
29687;DHT22;16599;47.078;15.536;2023-03-14T09:30:22;14.20;90.70
29687;DHT22;16599;47.078;15.536;2023-03-14T09:32:49;14.30;90.60
29687;DHT22;16599;47.078;15.536;2023-03-14T09:35:15;14.30;90.60
29687;DHT22;16599;47.078;15.536;2023-03-14T09:37:42;14.40;90.40
29687;DHT22;16599;47.078;15.536;2023-03-14T09:40:13;14.30;90.20
29687;DHT22;16599;47.078;15.536;2023-03-14T09:42:41;14.20;90.50
29687;DHT22;16599;47.078;15.536;2023-03-14T09:45:42;14.00;90.40
29687;DHT22;16599;47.078;15.536;2023-03-14T09:48:02;14.00;90.40
29687;DHT22;16599;47.078;15.536;2023-03-14T09:50:31;13.90;90.80
29687;DHT22;16599;47.078;15.536;2023-03-14T09:53:01;13.80;90.40
29687;DHT22;16599;47.078;15.536;2023-03-14T09:55:29;13.80;90.80
29687;DHT22;16599;47.078;15.536;2023-03-14T09:58:00;13.80;90.80
29687;DHT22;16599;47.078;15.536;2023-03-14T10:00:29;13.60;91.10
29687;DHT22;16599;47.078;15.536;2023-03-14T10:03:00;13.70;90.70
29687;DHT22;16599;47.078;15.536;2023-03-14T10:05:28;13.70;89.80
29687;DHT22;16599;47.078;15.536;2023-03-14T10:07:56;13.70;90.20
29687;DHT22;16599;47.078;15.536;2023-03-14T10:10:24;13.70;89.30
29687;DHT22;16599;47.078;15.536;2023-03-14T10:12:57;13.70;89.60
29687;DHT22;16599;47.078;15.536;2023-03-14T10:15:34;13.70;88.70
29687;DHT22;16599;47.078;15.536;2023-03-14T10:18:02;13.60;89.30
29687;DHT22;16599;47.078;15.536;2023-03-14T10:20:39;13.60;89.00
29687;DHT22;16599;47.078;15.536;2023-03-14T10:25:38;13.50;89.90
29687;DHT22;16599;47.078;15.536;2023-03-14T10:28:09;13.50;88.90
29687;DHT22;16599;47.078;15.536;2023-03-14T10:33:11;13.80;85.90
29687;DHT22;16599;47.078;15.536;2023-03-14T10:35:38;13.80;87.00
29687;DHT22;16599;47.078;15.536;2023-03-14T10:38:05;13.80;86.50
29687;DHT22;16599;47.078;15.536;2023-03-14T10:40:45;13.90;85.40
29687;DHT22;16599;47.078;15.536;2023-03-14T10:43:16;13.90;85.70
29687;DHT22;16599;47.078;15.536;2023-03-14T10:45:44;13.60;90.50
29687;DHT22;16599;47.078;15.536;2023-03-14T10:48:19;13.30;92.40
29687;DHT22;16599;47.078;15.536;2023-03-14T10:50:53;13.40;92.80
29687;DHT22;16599;47.078;15.536;2023-03-14T10:53:20;13.30;92.60
29687;DHT22;16599;47.078;15.536;2023-03-14T10:55:47;13.30;92.60
29687;DHT22;16599;47.078;15.536;2023-03-14T10:58:19;13.30;92.60
29687;DHT22;16599;47.078;15.536;2023-03-14T11:00:48;13.30;92.60
29687;DHT22;16599;47.078;15.536;2023-03-14T11:03:16;13.40;92.50
29687;DHT22;16599;47.078;15.536;2023-03-14T11:08:13;13.60;92.40
29687;DHT22;16599;47.078;15.536;2023-03-14T11:10:41;13.50;92.10
29687;DHT22;16599;47.078;15.536;2023-03-14T11:13:22;13.60;92.00
29687;DHT22;16599;47.078;15.536;2023-03-14T11:16:08;13.80;90.80
29687;DHT22;16599;47.078;15.536;2023-03-14T11:21:08;14.40;84.50
29687;DHT22;16599;47.078;15.536;2023-03-14T11:26:18;14.60;80.70
29687;DHT22;16599;47.078;15.536;2023-03-14T11:28:50;14.60;76.50
29687;DHT22;16599;47.078;15.536;2023-03-14T11:31:20;14.80;76.50
29687;DHT22;16599;47.078;15.536;2023-03-14T11:36:45;15.70;72.90
29687;DHT22;16599;47.078;15.536;2023-03-14T11:39:16;15.70;72.50
29687;DHT22;16599;47.078;15.536;2023-03-14T11:41:45;16.00;69.40
29687;DHT22;16599;47.078;15.536;2023-03-14T11:44:19;16.10;68.90
29687;DHT22;16599;47.078;15.536;2023-03-14T11:46:48;16.10;70.10
29687;DHT22;16599;47.078;15.536;2023-03-14T11:49:30;16.30;67.90
29687;DHT22;16599;47.078;15.536;2023-03-14T11:51:59;16.30;67.60
29687;DHT22;16599;47.078;15.536;2023-03-14T11:56:55;16.00;67.50
29687;DHT22;16599;47.078;15.536;2023-03-14T11:59:45;15.80;66.70
29687;DHT22;16599;47.078;15.536;2023-03-14T12:07:17;15.00;66.80
29687;DHT22;16599;47.078;15.536;2023-03-14T12:09:45;14.90;66.30
29687;DHT22;16599;47.078;15.536;2023-03-14T12:12:14;14.80;67.20
29687;DHT22;16599;47.078;15.536;2023-03-14T12:14:45;14.70;68.20
29687;DHT22;16599;47.078;15.536;2023-03-14T12:17:20;14.60;68.20
29687;DHT22;16599;47.078;15.536;2023-03-14T12:19:47;14.70;68.40
29687;DHT22;16599;47.078;15.536;2023-03-14T12:24:45;14.70;68.20
29687;DHT22;16599;47.078;15.536;2023-03-14T12:27:13;14.60;68.30
29687;DHT22;16599;47.078;15.536;2023-03-14T12:30:00;14.70;68.70
29687;DHT22;16599;47.078;15.536;2023-03-14T12:32:30;14.60;68.30
29687;DHT22;16599;47.078;15.536;2023-03-14T12:35:01;14.50;68.20
29687;DHT22;16599;47.078;15.536;2023-03-14T12:37:34;14.50;68.70
29687;DHT22;16599;47.078;15.536;2023-03-14T12:42:37;14.50;71.70
29687;DHT22;16599;47.078;15.536;2023-03-14T12:45:15;14.60;71.60
29687;DHT22;16599;47.078;15.536;2023-03-14T12:47:54;14.60;69.40
29687;DHT22;16599;47.078;15.536;2023-03-14T12:50:26;14.60;70.30
29687;DHT22;16599;47.078;15.536;2023-03-14T12:55:33;14.40;71.20
29687;DHT22;16599;47.078;15.536;2023-03-14T13:00:37;14.30;71.80
29687;DHT22;16599;47.078;15.536;2023-03-14T13:03:21;14.20;70.50
29687;DHT22;16599;47.078;15.536;2023-03-14T13:06:01;14.10;72.00
29687;DHT22;16599;47.078;15.536;2023-03-14T13:11:10;13.90;73.80
29687;DHT22;16599;47.078;15.536;2023-03-14T13:13:41;13.80;74.00
29687;DHT22;16599;47.078;15.536;2023-03-14T13:16:10;13.80;74.90
29687;DHT22;16599;47.078;15.536;2023-03-14T13:18:40;13.70;74.70
29687;DHT22;16599;47.078;15.536;2023-03-14T13:23:37;13.50;76.10
29687;DHT22;16599;47.078;15.536;2023-03-14T13:26:06;13.40;76.30
29687;DHT22;16599;47.078;15.536;2023-03-14T13:28:35;13.40;76.90
29687;DHT22;16599;47.078;15.536;2023-03-14T13:31:03;13.30;77.60
29687;DHT22;16599;47.078;15.536;2023-03-14T13:33:31;13.30;77.60
29687;DHT22;16599;47.078;15.536;2023-03-14T13:36:02;13.20;78.30
29687;DHT22;16599;47.078;15.536;2023-03-14T13:38:31;13.20;77.60
29687;DHT22;16599;47.078;15.536;2023-03-14T13:40:59;13.10;77.40
29687;DHT22;16599;47.078;15.536;2023-03-14T13:48:29;13.00;78.70
29687;DHT22;16599;47.078;15.536;2023-03-14T13:51:00;12.90;79.60
29687;DHT22;16599;47.078;15.536;2023-03-14T13:53:28;12.90;79.40
29687;DHT22;16599;47.078;15.536;2023-03-14T13:55:55;13.00;79.20
29687;DHT22;16599;47.078;15.536;2023-03-14T13:58:23;12.90;79.20
29687;DHT22;16599;47.078;15.536;2023-03-14T14:00:54;12.90;79.60
29687;DHT22;16599;47.078;15.536;2023-03-14T14:03:21;13.00;79.80
29687;DHT22;16599;47.078;15.536;2023-03-14T14:05:48;12.90;79.80
29687;DHT22;16599;47.078;15.536;2023-03-14T14:08:15;12.90;80.50
29687;DHT22;16599;47.078;15.536;2023-03-14T14:10:41;12.90;80.10
29687;DHT22;16599;47.078;15.536;2023-03-14T14:13:10;12.90;79.80
29687;DHT22;16599;47.078;15.536;2023-03-14T14:15:41;12.90;79.90
29687;DHT22;16599;47.078;15.536;2023-03-14T14:18:09;12.80;79.70
29687;DHT22;16599;47.078;15.536;2023-03-14T14:20:38;12.90;79.90
29687;DHT22;16599;47.078;15.536;2023-03-14T14:23:16;12.90;79.60
29687;DHT22;16599;47.078;15.536;2023-03-14T14:25:45;13.00;79.20
29687;DHT22;16599;47.078;15.536;2023-03-14T14:28:17;13.10;79.30
29687;DHT22;16599;47.078;15.536;2023-03-14T14:30:47;13.10;78.80
29687;DHT22;16599;47.078;15.536;2023-03-14T14:33:25;13.20;78.50
29687;DHT22;16599;47.078;15.536;2023-03-14T14:35:56;13.30;79.10
29687;DHT22;16599;47.078;15.536;2023-03-14T14:38:23;13.40;78.40
29687;DHT22;16599;47.078;15.536;2023-03-14T14:40:51;13.40;78.20
29687;DHT22;16599;47.078;15.536;2023-03-14T14:43:21;13.40;77.60
29687;DHT22;16599;47.078;15.536;2023-03-14T14:45:49;13.50;77.70
29687;DHT22;16599;47.078;15.536;2023-03-14T14:48:18;13.50;77.80
29687;DHT22;16599;47.078;15.536;2023-03-14T14:50:56;13.50;77.30
29687;DHT22;16599;47.078;15.536;2023-03-14T14:53:31;13.50;77.40
29687;DHT22;16599;47.078;15.536;2023-03-14T14:56:15;13.40;77.70
29687;DHT22;16599;47.078;15.536;2023-03-14T14:58:43;13.50;77.70
29687;DHT22;16599;47.078;15.536;2023-03-14T15:01:12;13.50;77.50
29687;DHT22;16599;47.078;15.536;2023-03-14T15:03:41;13.50;78.30
29687;DHT22;16599;47.078;15.536;2023-03-14T15:06:08;13.50;77.70
29687;DHT22;16599;47.078;15.536;2023-03-14T15:08:36;13.50;77.60
29687;DHT22;16599;47.078;15.536;2023-03-14T15:11:03;13.40;77.70
29687;DHT22;16599;47.078;15.536;2023-03-14T15:13:31;13.40;76.90
29687;DHT22;16599;47.078;15.536;2023-03-14T15:15:58;13.40;78.10
29687;DHT22;16599;47.078;15.536;2023-03-14T15:18:25;13.40;77.60
29687;DHT22;16599;47.078;15.536;2023-03-14T15:20:55;13.40;77.30
29687;DHT22;16599;47.078;15.536;2023-03-14T15:23:22;13.50;77.30
29687;DHT22;16599;47.078;15.536;2023-03-14T15:25:49;13.60;76.60
29687;DHT22;16599;47.078;15.536;2023-03-14T15:28:24;13.60;77.20
29687;DHT22;16599;47.078;15.536;2023-03-14T15:30:52;13.60;77.10
29687;DHT22;16599;47.078;15.536;2023-03-14T15:33:20;13.50;77.70
29687;DHT22;16599;47.078;15.536;2023-03-14T15:35:47;13.40;77.40
29687;DHT22;16599;47.078;15.536;2023-03-14T15:38:15;13.40;78.80
29687;DHT22;16599;47.078;15.536;2023-03-14T15:40:42;13.30;78.70
29687;DHT22;16599;47.078;15.536;2023-03-14T15:43:09;13.30;79.10
29687;DHT22;16599;47.078;15.536;2023-03-14T15:45:35;13.20;78.50
29687;DHT22;16599;47.078;15.536;2023-03-14T15:48:02;13.20;78.20
29687;DHT22;16599;47.078;15.536;2023-03-14T15:50:29;13.20;78.80
29687;DHT22;16599;47.078;15.536;2023-03-14T15:52:56;13.10;80.00
29687;DHT22;16599;47.078;15.536;2023-03-14T15:55:23;13.00;80.10
29687;DHT22;16599;47.078;15.536;2023-03-14T15:57:50;13.00;79.40
29687;DHT22;16599;47.078;15.536;2023-03-14T16:00:18;13.10;79.60
29687;DHT22;16599;47.078;15.536;2023-03-14T16:02:45;13.00;79.50
29687;DHT22;16599;47.078;15.536;2023-03-14T16:05:12;13.00;79.20
29687;DHT22;16599;47.078;15.536;2023-03-14T16:07:39;12.90;79.40
29687;DHT22;16599;47.078;15.536;2023-03-14T16:10:06;12.90;79.80
29687;DHT22;16599;47.078;15.536;2023-03-14T16:12:34;12.90;80.00
29687;DHT22;16599;47.078;15.536;2023-03-14T16:15:00;12.90;80.30
29687;DHT22;16599;47.078;15.536;2023-03-14T16:17:27;12.80;80.00
29687;DHT22;16599;47.078;15.536;2023-03-14T16:19:54;12.80;80.30
29687;DHT22;16599;47.078;15.536;2023-03-14T16:22:21;12.80;81.00
29687;DHT22;16599;47.078;15.536;2023-03-14T16:24:47;12.70;82.00
29687;DHT22;16599;47.078;15.536;2023-03-14T16:27:14;12.60;82.20